Time;durP1;ratioP1;P1;durP2;ratioP2;P2;SDS_P1;SDS_P2;PMS_P1;PMS_P2;Temp;Humidity;BMP_temperature;BMP_pressure;BME280_temperature;BME280_humidity;BME280_pressure;Samples;Min_cycle;Max_cycle;Signal;HPM_P1;HPM_P2
2021/12/13 00:00:11;;;;;;;3.65;1.67;;;9.90;99.90;;;;;;5073434;28;20032;-72
2021/12/13 00:02:51;;;;;;;4.05;1.75;;;9.90;99.90;;;;;;5072651;28;20051;-72
2021/12/13 00:05:27;;;;;;;4.43;1.50;;;9.90;99.90;;;;;;5073048;28;20021;-70
2021/12/13 00:08:03;;;;;;;4.43;1.67;;;9.90;99.90;;;;;;5072966;28;20031;-71
2021/12/13 00:10:34;;;;;;;4.47;1.45;;;9.80;99.90;;;;;;5054497;28;20028;-70
2021/12/13 00:13:08;;;;;;;5.72;1.50;;;9.80;99.90;;;;;;5073258;28;20031;-71
2021/12/13 00:15:44;;;;;;;10.75;2.30;;;9.70;99.90;;;;;;5076812;28;20032;-71
2021/12/13 00:18:18;;;;;;;6.40;1.38;;;9.80;99.90;;;;;;5076994;28;20031;-71
2021/12/13 00:20:50;;;;;;;5.00;1.65;;;9.70;99.90;;;;;;5076872;28;20032;-71
2021/12/13 00:23:27;;;;;;;6.28;1.67;;;9.70;99.90;;;;;;5076669;28;20040;-71
2021/12/13 00:25:59;;;;;;;5.82;1.60;;;9.70;99.90;;;;;;5058670;28;20031;-72
2021/12/13 00:28:31;;;;;;;5.90;1.60;;;9.70;99.90;;;;;;5076476;28;20049;-71
2021/12/13 00:31:12;;;;;;;8.70;1.80;;;9.70;99.90;;;;;;5076806;28;20028;-71
2021/12/13 00:34:01;;;;;;;6.80;1.58;;;9.70;99.90;;;;;;5076134;28;20029;-72
2021/12/13 00:36:30;;;;;;;4.07;1.60;;;9.70;99.90;;;;;;5076469;28;20032;-71
2021/12/13 00:39:10;;;;;;;5.80;1.63;;;9.90;99.90;;;;;;5076083;28;20507;-71
2021/12/13 00:41:40;;;;;;;4.57;1.60;;;9.90;99.90;;;;;;5058921;28;20106;-71
2021/12/13 00:44:12;;;;;;;4.22;1.35;;;9.90;99.90;;;;;;5076199;28;20035;-72
2021/12/13 00:46:42;;;;;;;3.72;1.50;;;9.90;99.90;;;;;;5076449;28;20025;-71
2021/12/13 00:49:15;;;;;;;4.68;1.20;;;9.80;99.90;;;;;;5075859;28;20032;-71
2021/12/13 00:51:48;;;;;;;3.70;1.35;;;9.80;99.90;;;;;;5076424;28;20380;-72
2021/12/13 00:54:21;;;;;;;8.48;1.40;;;9.70;99.90;;;;;;5076312;28;20066;-72
2021/12/13 00:57:04;;;;;;;6.32;1.60;;;9.60;99.90;;;;;;5076302;28;20146;-72
2021/12/13 00:59:44;;;;;;;4.82;1.40;;;9.50;99.90;;;;;;5076259;28;20074;-73
2021/12/13 01:02:15;;;;;;;4.88;1.65;;;9.60;99.90;;;;;;5057762;28;20029;-72
2021/12/13 01:04:57;;;;;;;6.57;1.45;;;9.60;99.90;;;;;;5076176;28;20104;-72
2021/12/13 01:07:56;;;;;;;6.13;1.50;;;9.60;99.90;;;;;;5058789;28;20033;-72
2021/12/13 01:10:53;;;;;;;6.30;1.90;;;9.50;99.90;;;;;;5061727;28;20035;-72
2021/12/13 01:13:36;;;;;;;4.70;1.88;;;9.40;99.90;;;;;;5075439;28;20029;-72
2021/12/13 01:16:36;;;;;;;2.42;1.20;;;9.40;99.90;;;;;;5075893;28;20036;-72
2021/12/13 01:19:28;;;;;;;2.88;1.35;;;9.40;99.90;;;;;;5075906;28;20016;-73
2021/12/13 01:22:25;;;;;;;6.25;1.73;;;9.40;99.90;;;;;;5075992;28;20024;-72
2021/12/13 01:27:58;;;;;;;5.43;1.60;;;9.30;99.90;;;;;;5075204;28;20072;-72
2021/12/13 01:30:47;;;;;;;5.03;1.58;;;9.40;99.90;;;;;;4994159;28;20042;-72
2021/12/13 01:33:15;;;;;;;4.25;1.50;;;9.40;99.90;;;;;;4993609;28;20030;-72
2021/12/13 01:35:45;;;;;;;4.88;1.60;;;9.50;99.90;;;;;;4993538;28;20061;-71
2021/12/13 01:38:32;;;;;;;4.55;1.35;;;9.70;99.90;;;;;;4993620;28;20387;-72
2021/12/13 01:41:06;;;;;;;3.55;1.45;;;9.80;99.90;;;;;;4993590;28;20142;-73
2021/12/13 01:43:32;;;;;;;3.60;1.48;;;9.70;99.90;;;;;;4993448;28;20117;-73
2021/12/13 01:45:59;;;;;;;4.05;1.60;;;9.70;99.90;;;;;;4993959;28;20037;-72
2021/12/13 01:48:27;;;;;;;3.08;1.40;;;9.70;99.90;;;;;;4993931;28;20124;-72
2021/12/13 01:51:04;;;;;;;4.80;1.70;;;9.70;99.90;;;;;;4993492;28;20026;-72
2021/12/13 01:53:33;;;;;;;;;;;9.70;99.90;;;;;;4993750;28;20154;-72
2021/12/13 01:56:09;;;;;;;3.78;1.27;;;9.70;99.90;;;;;;4993333;28;20441;-72
2021/12/13 01:58:42;;;;;;;4.72;1.63;;;9.70;99.90;;;;;;4993303;28;20031;-72
2021/12/13 02:01:19;;;;;;;7.53;1.52;;;9.80;99.90;;;;;;4993174;28;20057;-73
2021/12/13 02:03:54;;;;;;;4.68;1.85;;;9.80;99.90;;;;;;4993177;28;20034;-72
2021/12/13 02:06:35;;;;;;;5.93;1.50;;;9.80;99.90;;;;;;5025585;28;20037;-72
2021/12/13 02:09:07;;;;;;;5.20;1.50;;;9.80;99.90;;;;;;5074376;28;20105;-72
2021/12/13 02:11:35;;;;;;;5.53;1.60;;;9.60;99.90;;;;;;5075042;28;20488;-73
2021/12/13 02:14:14;;;;;;;5.55;1.80;;;9.60;99.90;;;;;;5074748;28;20012;-72
2021/12/13 02:17:17;;;;;;;3.85;1.60;;;9.60;99.90;;;;;;5056214;28;20568;-72
2021/12/13 02:20:00;;;;;;;3.65;1.75;;;9.50;99.90;;;;;;5073529;28;20119;-72
2021/12/13 02:22:37;;;;;;;4.18;1.55;;;9.50;99.90;;;;;;5074752;28;20060;-73
2021/12/13 02:25:19;;;;;;;4.03;1.60;;;9.50;99.90;;;;;;5074072;28;20025;-73
2021/12/13 02:27:51;;;;;;;2.83;1.27;;;9.50;99.90;;;;;;5074266;28;20040;-72
2021/12/13 02:30:31;;;;;;;4.88;1.58;;;9.70;99.90;;;;;;5074545;28;20442;-72
2021/12/13 02:32:59;;;;;;;4.43;1.70;;;9.80;99.90;;;;;;5055936;28;20020;-72
2021/12/13 02:35:29;;;;;;;3.63;1.27;;;9.70;99.90;;;;;;5073719;28;20059;-72
2021/12/13 02:37:58;;;;;;;3.30;1.50;;;9.70;99.90;;;;;;5073856;28;20028;-73
2021/12/13 02:40:29;;;;;;;3.25;1.23;;;9.70;99.90;;;;;;5073853;28;20038;-72
2021/12/13 02:42:58;;;;;;;5.03;1.60;;;9.60;99.90;;;;;;5038095;28;20038;-72
2021/12/13 02:45:34;;;;;;;4.95;1.55;;;9.60;99.90;;;;;;5073797;28;20126;-72
2021/12/13 02:48:06;;;;;;;3.20;1.20;;;9.60;99.90;;;;;;5073913;28;20013;-72
2021/12/13 02:50:53;;;;;;;6.10;1.92;;;9.70;99.90;;;;;;5074435;28;20028;-73
2021/12/13 02:53:38;;;;;;;4.32;1.40;;;9.60;99.90;;;;;;5072429;28;20124;-71
2021/12/13 02:56:12;;;;;;;3.40;1.20;;;9.70;99.90;;;;;;5073353;28;20043;-73
2021/12/13 02:58:40;;;;;;;7.35;1.50;;;9.60;99.90;;;;;;5073476;28;20099;-72
2021/12/13 03:01:20;;;;;;;3.10;1.30;;;9.60;99.90;;;;;;5073830;28;20039;-72
2021/12/13 03:03:52;;;;;;;3.15;1.27;;;9.50;99.90;;;;;;5073747;28;20025;-72
2021/12/13 03:06:22;;;;;;;3.10;1.27;;;9.50;99.90;;;;;;5073792;28;20024;-72
2021/12/13 03:08:58;;;;;;;4.43;1.40;;;9.50;99.90;;;;;;5073187;28;20116;-72
2021/12/13 03:11:30;;;;;;;5.85;1.42;;;9.50;99.90;;;;;;5073305;28;20028;-72
2021/12/13 03:14:07;;;;;;;6.50;1.40;;;9.50;99.90;;;;;;5073101;28;20461;-72
2021/12/13 03:16:50;;;;;;;4.10;1.48;;;9.40;99.90;;;;;;5073585;28;20041;-72
2021/12/13 03:19:38;;;;;;;3.75;1.42;;;9.40;99.90;;;;;;5073687;28;20025;-72
2021/12/13 03:22:41;;;;;;;2.42;1.13;;;9.40;99.90;;;;;;5073582;28;20039;-72
2021/12/13 03:25:25;;;;;;;4.93;1.58;;;9.40;99.90;;;;;;5073352;28;20420;-73
2021/12/13 03:28:11;;;;;;;3.95;1.33;;;9.40;99.90;;;;;;5073007;28;20174;-73
2021/12/13 03:30:54;;;;;;;5.03;1.55;;;9.40;99.90;;;;;;5072921;28;20158;-72
2021/12/13 03:33:32;;;;;;;4.95;1.40;;;9.40;99.90;;;;;;5073151;28;20025;-71
2021/12/13 03:36:00;;;;;;;2.75;1.10;;;9.40;99.90;;;;;;5073086;28;20036;-73
2021/12/13 03:38:51;;;;;;;3.08;1.35;;;9.30;99.90;;;;;;5073370;28;20028;-73
2021/12/13 03:41:21;;;;;;;3.22;1.33;;;9.40;99.90;;;;;;5063248;28;20040;-72
2021/12/13 03:43:53;;;;;;;2.22;1.10;;;9.30;99.90;;;;;;5072687;28;20058;-73
2021/12/13 03:46:29;;;;;;;9.40;1.60;;;9.30;99.90;;;;;;5054884;28;20162;-72
2021/12/13 03:49:00;;;;;;;2.90;0.90;;;9.30;99.90;;;;;;5072065;28;20110;-73
2021/12/13 03:51:37;;;;;;;3.05;1.08;;;9.30;99.90;;;;;;5072843;28;20056;-72
2021/12/13 03:54:05;;;;;;;;;;;9.40;99.90;;;;;;5073614;28;20025;-72
2021/12/13 03:56:40;;;;;;;2.28;1.10;;;9.40;99.90;;;;;;5072642;28;19919;-72
2021/12/13 03:59:18;;;;;;;3.00;1.10;;;9.50;99.90;;;;;;5073090;28;20105;-73
2021/12/13 04:02:08;;;;;;;3.35;1.00;;;9.50;99.90;;;;;;5072980;28;20488;-72
2021/12/13 04:04:44;;;;;;;2.20;0.90;;;9.50;99.90;;;;;;5054693;28;20020;-72
2021/12/13 04:07:26;;;;;;;5.25;1.20;;;9.50;99.90;;;;;;5072996;28;20021;-70
2021/12/13 04:10:10;;;;;;;4.63;1.30;;;9.60;99.90;;;;;;5073058;28;20107;-71
2021/12/13 04:12:46;;;;;;;4.28;1.10;;;9.60;99.90;;;;;;5072449;28;20029;-71
2021/12/13 04:15:20;;;;;;;2.05;1.02;;;9.60;99.90;;;;;;5054575;28;20024;-71
2021/12/13 04:20:33;;;;;;;6.50;1.10;;;9.60;99.90;;;;;;5072606;28;20029;-73
2021/12/13 04:23:09;;;;;;;4.15;1.85;;;9.70;99.90;;;;;;5073024;28;20157;-71
2021/12/13 04:25:41;;;;;;;2.83;1.10;;;9.80;99.90;;;;;;5072957;28;20086;-72
2021/12/13 04:28:34;;;;;;;5.13;1.33;;;9.80;99.90;;;;;;5072479;28;20516;-73
2021/12/13 04:31:04;;;;;;;3.50;1.20;;;9.90;99.90;;;;;;5071791;28;20071;-73
2021/12/13 04:33:36;;;;;;;3.00;1.15;;;10.00;99.90;;;;;;5072839;28;20031;-71
2021/12/13 04:36:18;;;;;;;3.40;1.10;;;10.00;99.90;;;;;;5072561;28;20328;-71
2021/12/13 04:38:51;;;;;;;3.25;1.10;;;10.00;99.90;;;;;;5054213;28;20129;-72
2021/12/13 04:41:49;;;;;;;8.27;1.17;;;10.00;99.90;;;;;;5072850;28;20048;-71
2021/12/13 04:44:21;;;;;;;3.72;0.90;;;10.00;99.90;;;;;;5072811;28;20025;-72
2021/12/13 04:46:52;;;;;;;3.55;1.33;;;10.00;99.90;;;;;;5072683;28;20017;-73
2021/12/13 04:49:22;;;;;;;3.50;1.13;;;10.10;99.90;;;;;;5072728;28;20021;-71
2021/12/13 04:52:21;;;;;;;4.22;1.10;;;10.00;99.90;;;;;;5071878;28;20068;-71
2021/12/13 04:54:53;;;;;;;5.35;1.20;;;10.00;99.90;;;;;;4990731;28;20042;-71
2021/12/13 04:57:21;;;;;;;2.78;1.02;;;9.90;99.90;;;;;;4991231;28;20039;-71
2021/12/13 04:59:57;;;;;;;7.55;1.13;;;10.00;99.90;;;;;;4975399;28;20164;-71
2021/12/13 05:02:23;;;;;;;3.17;1.17;;;10.00;99.90;;;;;;4994655;28;20067;-71
2021/12/13 05:04:54;;;;;;;3.08;1.23;;;10.00;99.90;;;;;;4994335;28;20191;-71
2021/12/13 05:07:21;;;;;;;5.15;1.35;;;10.10;99.90;;;;;;4994532;28;20026;-71
2021/12/13 05:09:48;;;;;;;2.28;0.90;;;10.10;99.90;;;;;;4994376;28;20026;-72
2021/12/13 05:12:19;;;;;;;2.50;0.82;;;10.00;99.90;;;;;;4994706;28;20156;-72
2021/12/13 05:15:22;;;;;;;3.10;1.00;;;10.00;99.90;;;;;;4994507;28;20041;-71
2021/12/13 05:17:48;;;;;;;3.10;1.00;;;9.90;99.90;;;;;;4994414;28;20507;-71
2021/12/13 05:20:26;;;;;;;1.95;0.82;;;10.00;99.90;;;;;;4994105;28;20033;-71
2021/12/13 05:22:58;;;;;;;2.40;1.00;;;10.00;99.90;;;;;;4994281;28;20518;-71
2021/12/13 05:25:52;;;;;;;3.25;1.10;;;10.00;99.90;;;;;;4994053;28;20034;-71
2021/12/13 05:28:27;;;;;;;4.15;1.33;;;10.20;99.90;;;;;;4985957;28;20050;-72
2021/12/13 05:31:02;;;;;;;4.50;1.25;;;10.20;99.90;;;;;;5052704;28;20039;-71
2021/12/13 05:33:34;;;;;;;2.72;1.10;;;10.20;99.90;;;;;;5075779;28;20373;-72
2021/12/13 05:36:10;;;;;;;3.35;1.08;;;10.20;99.90;;;;;;5057399;28;20101;-71
2021/12/13 05:38:41;;;;;;;3.38;1.08;;;10.10;99.90;;;;;;5057237;28;20024;-72
2021/12/13 05:41:18;;;;;;;2.20;0.98;;;10.10;99.90;;;;;;5075136;28;20031;-71
2021/12/13 05:43:49;;;;;;;;;;;10.20;99.90;;;;;;5075140;28;20027;-71
2021/12/13 05:46:35;;;;;;;2.35;1.02;;;10.20;99.90;;;;;;5074747;28;19904;-71
2021/12/13 05:49:17;;;;;;;;;;;10.00;99.90;;;;;;5075413;28;20330;-71
2021/12/13 05:51:49;;;;;;;2.60;1.23;;;10.00;99.90;;;;;;5056555;28;19908;-72
2021/12/13 05:54:28;;;;;;;3.80;1.15;;;9.90;99.90;;;;;;5057457;28;20177;-71
2021/12/13 05:57:00;;;;;;;3.13;1.10;;;9.90;99.90;;;;;;5074643;28;20033;-71
2021/12/13 05:59:32;;;;;;;4.07;1.30;;;9.90;99.90;;;;;;5074985;28;20110;-73
2021/12/13 06:02:36;;;;;;;3.05;1.20;;;9.90;99.90;;;;;;5074870;28;20031;-72
2021/12/13 06:05:16;;;;;;;6.20;1.20;;;9.90;99.90;;;;;;5043465;28;20032;-71
2021/12/13 06:07:51;;;;;;;2.95;1.10;;;9.90;99.90;;;;;;5074608;28;20085;-71
2021/12/13 06:10:19;;;;;;;4.38;1.33;;;10.00;99.90;;;;;;5066255;28;20492;-70
2021/12/13 06:12:55;;;;;;;3.20;1.50;;;9.90;99.90;;;;;;5059901;28;20028;-70
2021/12/13 06:15:24;;;;;;;3.22;1.20;;;9.90;99.90;;;;;;5060099;28;20029;-71
2021/12/13 06:17:57;;;;;;;4.28;1.35;;;9.90;99.90;;;;;;5065790;28;20029;-71
2021/12/13 06:20:34;;;;;;;3.40;1.23;;;10.00;99.90;;;;;;5067804;28;20060;-67
2021/12/13 06:23:20;;;;;;;11.45;1.77;;;10.00;99.90;;;;;;5066114;28;20068;-66
2021/12/13 06:25:53;;;;;;;6.85;1.83;;;10.00;99.90;;;;;;5065184;28;20381;-70
2021/12/13 06:28:23;;;;;;;3.25;1.48;;;10.00;99.90;;;;;;5064464;28;20055;-68
2021/12/13 06:31:20;;;;;;;9.98;1.70;;;10.00;99.90;;;;;;5074655;28;20457;-70
2021/12/13 06:34:00;;;;;;;7.18;2.60;;;10.50;99.90;;;;;;4956576;28;20507;-71
2021/12/13 06:36:32;;;;;;;7.38;1.90;;;11.30;99.90;;;;;;4966674;28;20046;-71
2021/12/13 06:39:03;;;;;;;5.30;2.20;;;12.20;99.90;;;;;;4972052;28;20152;-71
2021/12/13 06:41:29;;;;;;;5.88;2.33;;;13.10;99.90;;;;;;4972604;28;20138;-71
2021/12/13 06:44:29;;;;;;;6.33;1.80;;;13.90;99.90;;;;;;4972511;28;20122;-72
2021/12/13 06:47:08;;;;;;;6.22;2.08;;;14.30;99.90;;;;;;4914719;29;20083;-72
2021/12/13 06:49:56;;;;;;;6.88;1.70;;;14.90;99.90;;;;;;4914695;29;20490;-70
2021/12/13 06:52:32;;;;;;;8.07;1.63;;;15.70;99.90;;;;;;4914540;29;20405;-71
2021/12/13 06:55:00;;;;;;;7.90;1.83;;;16.60;99.90;;;;;;4897650;29;20032;-72
2021/12/13 06:57:39;;;;;;;4.72;1.85;;;17.10;99.10;;;;;;4914473;29;20272;-71
2021/12/13 07:00:09;;;;;;;8.38;1.70;;;17.60;98.40;;;;;;4914308;29;20128;-72
2021/12/13 07:02:45;;;;;;;5.90;2.03;;;17.90;97.30;;;;;;4914217;29;20040;-72
2021/12/13 07:05:22;;;;;;;3.83;2.00;;;18.50;96.80;;;;;;4914379;29;20072;-71
2021/12/13 07:08:00;;;;;;;7.28;2.35;;;19.20;95.60;;;;;;4914508;29;20124;-72
2021/12/13 07:10:44;;;;;;;6.72;1.70;;;19.70;94.70;;;;;;4950350;28;20043;-73
2021/12/13 07:13:23;;;;;;;3.20;1.30;;;20.10;93.20;;;;;;4972114;28;20084;-72
2021/12/13 07:16:01;;;;;;;7.05;1.30;;;20.30;92.00;;;;;;4971858;28;20047;-72
2021/12/13 07:18:38;;;;;;;4.60;1.35;;;20.30;91.40;;;;;;4971987;28;20031;-74
2021/12/13 07:21:11;;;;;;;2.80;1.33;;;20.80;91.40;;;;;;4972019;28;20035;-70
2021/12/13 07:24:05;;;;;;;4.22;1.50;;;21.20;90.20;;;;;;5050661;28;20037;-73
2021/12/13 07:26:43;;;;;;;7.28;1.60;;;21.70;89.10;;;;;;5047323;28;20504;-72
2021/12/13 07:29:22;;;;;;;10.38;1.90;;;22.20;86.30;;;;;;5052785;28;20398;-73
2021/12/13 07:32:19;;;;;;;4.63;2.17;;;22.60;83.90;;;;;;5052875;28;20021;-71
2021/12/13 07:35:02;;;;;;;4.10;1.40;;;23.00;83.40;;;;;;5046975;28;20171;-72
2021/12/13 07:37:47;;;;;;;3.30;1.23;;;22.90;81.60;;;;;;5052868;28;20064;-72
2021/12/13 07:40:16;;;;;;;3.40;1.27;;;22.80;80.60;;;;;;5034113;28;20343;-71
2021/12/13 07:43:04;;;;;;;5.45;1.77;;;22.10;80.80;;;;;;5052420;28;20028;-71
2021/12/13 07:45:51;;;;;;;8.48;1.60;;;20.30;82.90;;;;;;5052210;28;20037;-69
2021/12/13 07:48:25;;;;;;;6.00;1.65;;;19.40;88.60;;;;;;5061039;28;20059;-66
2021/12/13 07:51:09;;;;;;;3.85;1.30;;;18.60;90.10;;;;;;5059399;28;20033;-70
2021/12/13 07:53:47;;;;;;;4.43;1.48;;;17.60;90.40;;;;;;5059077;28;20013;-71
2021/12/13 07:56:29;;;;;;;4.85;1.50;;;17.30;92.20;;;;;;5059538;28;20199;-74
2021/12/13 07:59:04;;;;;;;5.53;1.70;;;17.10;92.60;;;;;;5043983;28;20020;-67
2021/12/13 08:01:32;;;;;;;5.68;1.30;;;16.40;92.60;;;;;;5061681;28;20031;-71
2021/12/13 08:04:07;;;;;;;7.70;1.67;;;15.80;93.20;;;;;;5061063;28;20029;-71
2021/12/13 08:06:41;;;;;;;5.60;1.85;;;15.50;93.80;;;;;;5060047;28;20037;-71
2021/12/13 08:09:21;;;;;;;5.75;1.63;;;15.70;94.30;;;;;;5060164;28;20021;-72
2021/12/13 08:12:18;;;;;;;6.07;1.60;;;15.60;94.10;;;;;;5042459;28;20037;-68
2021/12/13 08:14:47;;;;;;;4.25;1.30;;;15.70;94.00;;;;;;5052723;28;20055;-73
2021/12/13 08:17:25;;;;;;;6.88;1.70;;;15.80;94.10;;;;;;5070960;28;20456;-74
2021/12/13 08:20:06;;;;;;;3.55;1.60;;;15.80;94.30;;;;;;5071112;28;20064;-71
2021/12/13 08:22:33;;;;;;;3.90;1.40;;;16.00;94.00;;;;;;5070930;28;20020;-72
2021/12/13 08:25:09;;;;;;;6.30;1.38;;;15.90;93.80;;;;;;5055096;28;20139;-73
2021/12/13 08:27:41;;;;;;;4.70;1.80;;;15.90;93.70;;;;;;5029389;28;20084;-72
2021/12/13 08:30:16;;;;;;;6.22;1.75;;;15.40;94.30;;;;;;5030933;28;20036;-70
2021/12/13 08:33:05;;;;;;;5.88;1.70;;;15.60;94.30;;;;;;5030795;28;20021;-72
2021/12/13 08:36:07;;;;;;;5.90;2.50;;;15.80;94.50;;;;;;5032832;28;20033;-72
2021/12/13 08:38:40;;;;;;;7.18;2.70;;;16.00;94.40;;;;;;5033338;28;20030;-74
2021/12/13 08:41:30;;;;;;;6.38;2.50;;;16.10;94.30;;;;;;5033515;28;20363;-72
2021/12/13 08:44:16;;;;;;;8.23;2.08;;;16.30;94.60;;;;;;5034878;28;20025;-73
2021/12/13 08:46:45;;;;;;;7.20;2.38;;;16.50;94.50;;;;;;5034856;28;20036;-72
2021/12/13 08:49:29;;;;;;;3.95;1.90;;;16.50;94.30;;;;;;5034939;28;20457;-72
2021/12/13 08:52:13;;;;;;;8.43;2.17;;;16.50;93.50;;;;;;5034380;28;20026;-72
2021/12/13 08:54:51;;;;;;;5.35;2.00;;;16.10;93.20;;;;;;5033183;28;20033;-74
2021/12/13 08:58:18;;;;;;;5.63;1.83;;;15.60;94.10;;;;;;5034454;28;20037;-73
2021/12/13 09:00:58;;;;;;;11.82;2.10;;;15.20;94.70;;;;;;4973091;28;20042;-74
2021/12/13 09:04:00;;;;;;;4.57;1.67;;;15.40;94.40;;;;;;4973115;28;20459;-71
2021/12/13 09:06:33;;;;;;;6.78;1.30;;;15.50;93.40;;;;;;4976813;28;20034;-72
2021/12/13 09:09:10;;;;;;;36.35;5.38;;;15.30;93.20;;;;;;4975932;28;20495;-72
2021/12/13 09:11:56;;;;;;;3.33;1.10;;;15.20;95.30;;;;;;4976025;28;20157;-70
2021/12/13 09:14:35;;;;;;;4.25;1.63;;;15.10;93.50;;;;;;4992350;28;20380;-69
2021/12/13 09:17:10;;;;;;;5.13;1.52;;;14.90;93.90;;;;;;4990475;28;20050;-69
2021/12/13 09:19:48;;;;;;;4.15;1.50;;;14.70;93.10;;;;;;4986012;28;20026;-70
2021/12/13 09:22:35;;;;;;;7.55;1.35;;;14.50;93.70;;;;;;4979540;28;20034;-71
2021/12/13 09:25:16;;;;;;;2.83;1.20;;;14.70;93.60;;;;;;4969657;28;20046;-71
2021/12/13 09:27:49;;;;;;;9.63;2.03;;;14.50;93.10;;;;;;4973544;28;20051;-71
2021/12/13 09:30:21;;;;;;;6.45;1.50;;;14.30;94.00;;;;;;4957465;28;20043;-71
2021/12/13 09:32:49;;;;;;;3.45;1.50;;;14.00;93.80;;;;;;4957413;28;20497;-72
2021/12/13 09:35:32;;;;;;;4.05;1.48;;;14.00;93.90;;;;;;4975850;28;20149;-71
2021/12/13 09:38:19;;;;;;;3.55;1.38;;;14.00;94.40;;;;;;5031508;28;20037;-72
2021/12/13 09:40:56;;;;;;;3.03;1.08;;;14.20;93.80;;;;;;5034125;28;20087;-71
2021/12/13 09:43:32;;;;;;;4.43;1.50;;;13.90;92.70;;;;;;5034610;28;20030;-72
2021/12/13 09:46:00;;;;;;;5.60;1.40;;;14.00;92.80;;;;;;5033235;28;20037;-71
2021/12/13 09:48:42;;;;;;;6.03;1.55;;;13.90;93.60;;;;;;5033730;28;20026;-70
2021/12/13 09:51:33;;;;;;;5.45;1.40;;;13.80;93.10;;;;;;5032805;28;20109;-72
2021/12/13 09:54:04;;;;;;;5.28;1.40;;;13.90;92.90;;;;;;5033941;28;20032;-70
2021/12/13 09:56:37;;;;;;;4.25;1.17;;;14.00;93.50;;;;;;5033883;28;20040;-71
2021/12/13 09:59:15;;;;;;;5.13;1.42;;;14.00;92.70;;;;;;5033456;28;20022;-70
2021/12/13 10:01:42;;;;;;;3.60;1.35;;;14.00;93.10;;;;;;5033594;28;20033;-72
2021/12/13 10:04:25;;;;;;;6.75;1.40;;;13.90;92.50;;;;;;5033615;28;20028;-70
2021/12/13 10:06:56;;;;;;;3.35;1.15;;;13.90;93.10;;;;;;5033848;28;20108;-69
2021/12/13 10:09:27;;;;;;;4.50;1.30;;;14.10;92.60;;;;;;5034006;28;20412;-70
2021/12/13 10:12:10;;;;;;;4.80;1.65;;;14.20;92.90;;;;;;5033976;28;20091;-72
2021/12/13 10:14:41;;;;;;;4.53;2.10;;;14.30;93.10;;;;;;5033948;28;20045;-71
2021/12/13 10:17:10;;;;;;;3.65;1.60;;;14.40;93.00;;;;;;5033489;28;20037;-70
2021/12/13 10:19:43;;;;;;;7.00;2.05;;;14.30;92.90;;;;;;5033238;28;20048;-70
2021/12/13 10:22:12;;;;;;;3.58;1.30;;;14.20;92.70;;;;;;5033386;28;20119;-72
2021/12/13 10:24:46;;;;;;;4.57;1.48;;;14.10;93.00;;;;;;5033355;28;20024;-71
2021/12/13 10:27:17;;;;;;;4.60;1.70;;;14.00;93.20;;;;;;5032021;28;20042;-70
2021/12/13 10:29:49;;;;;;;4.72;1.77;;;14.10;93.90;;;;;;5033582;28;20496;-71
2021/12/13 10:32:29;;;;;;;6.43;1.50;;;14.30;93.20;;;;;;5033514;28;20037;-71
2021/12/13 10:35:00;;;;;;;5.80;1.73;;;14.50;93.00;;;;;;5033480;28;20474;-70
2021/12/13 10:37:38;;;;;;;4.82;1.48;;;14.80;92.90;;;;;;5033240;28;20041;-70
2021/12/13 10:40:21;;;;;;;6.18;1.75;;;14.90;92.40;;;;;;5033327;28;20017;-70
2021/12/13 10:43:21;;;;;;;4.35;1.60;;;15.00;92.10;;;;;;5033349;28;20032;-70
2021/12/13 10:46:11;;;;;;;4.15;1.90;;;14.60;92.10;;;;;;4952796;29;20043;-70
2021/12/13 10:48:44;;;;;;;3.53;1.40;;;14.60;91.30;;;;;;4952947;29;20032;-71
2021/12/13 10:51:28;;;;;;;5.63;1.83;;;14.50;91.80;;;;;;4952378;29;20055;-72
2021/12/13 10:53:56;;;;;;;5.78;1.77;;;14.30;92.50;;;;;;4936545;29;20042;-70
2021/12/13 10:56:31;;;;;;;3.47;1.52;;;14.60;92.50;;;;;;4936084;29;20082;-71
2021/12/13 10:59:01;;;;;;;3.92;1.42;;;14.80;92.20;;;;;;4935885;29;20026;-72
2021/12/13 11:01:35;;;;;;;4.90;1.50;;;14.50;91.90;;;;;;4952707;29;20058;-71
2021/12/13 11:04:07;;;;;;;2.72;1.30;;;14.50;92.40;;;;;;4952448;29;20059;-70
2021/12/13 11:06:35;;;;;;;4.20;1.40;;;14.60;92.30;;;;;;4965472;28;20035;-71
2021/12/13 11:09:05;;;;;;;2.75;1.30;;;14.80;91.90;;;;;;4970586;28;20126;-72
2021/12/13 11:11:41;;;;;;;6.20;1.65;;;14.80;92.30;;;;;;4971129;28;20115;-70
2021/12/13 11:14:11;;;;;;;4.00;1.50;;;14.70;92.30;;;;;;4970873;28;20105;-69
2021/12/13 11:16:44;;;;;;;6.88;1.50;;;14.70;92.20;;;;;;4954375;28;20047;-70
2021/12/13 11:19:13;;;;;;;5.07;1.20;;;14.60;91.70;;;;;;4970131;28;20531;-71
2021/12/13 11:21:43;;;;;;;6.20;1.50;;;14.70;91.60;;;;;;4990596;28;20045;-72
2021/12/13 11:24:15;;;;;;;3.30;1.20;;;14.60;91.70;;;;;;5031554;28;20484;-71
2021/12/13 11:26:44;;;;;;;2.58;1.00;;;14.70;91.80;;;;;;5030675;28;20077;-71
2021/12/13 11:29:14;;;;;;;3.72;1.25;;;14.90;91.10;;;;;;5051704;28;20076;-72
2021/12/13 11:31:52;;;;;;;2.45;1.00;;;14.80;90.80;;;;;;5033578;28;20047;-71
2021/12/13 11:34:46;;;;;;;3.15;1.13;;;14.60;90.60;;;;;;5033827;28;20489;-69
2021/12/13 11:37:49;;;;;;;4.78;1.20;;;14.60;90.10;;;;;;5070969;28;20545;-71
2021/12/13 11:40:32;;;;;;;4.13;1.17;;;14.60;89.40;;;;;;5053411;28;20075;-71
2021/12/13 11:43:35;;;;;;;3.47;1.15;;;14.80;88.70;;;;;;5072703;28;20102;-71
2021/12/13 11:46:28;;;;;;;2.65;1.17;;;14.90;89.50;;;;;;5072050;28;20021;-70
2021/12/13 11:49:11;;;;;;;4.53;0.90;;;14.80;89.00;;;;;;5072489;28;20032;-70
2021/12/13 11:51:54;;;;;;;5.22;1.25;;;14.70;89.80;;;;;;5071666;28;20090;-71
2021/12/13 11:54:58;;;;;;;3.92;1.27;;;14.80;90.40;;;;;;5053532;28;20107;-70
2021/12/13 11:58:01;;;;;;;2.75;0.90;;;14.80;90.00;;;;;;5071498;28;20104;-71
2021/12/13 12:01:04;;;;;;;2.38;1.00;;;15.00;88.70;;;;;;5070760;28;20078;-69
2021/12/13 12:04:08;;;;;;;2.42;1.02;;;14.90;88.40;;;;;;5051726;28;20388;-70
2021/12/13 12:07:12;;;;;;;4.90;1.13;;;14.80;89.50;;;;;;5070957;28;20032;-70
2021/12/13 12:10:18;;;;;;;3.70;1.05;;;14.70;90.10;;;;;;5071291;28;20384;-70
2021/12/13 12:13:05;;;;;;;3.17;0.90;;;14.60;90.10;;;;;;5033279;28;20071;-71
2021/12/13 12:15:58;;;;;;;4.80;1.20;;;14.60;89.30;;;;;;5033145;28;20111;-70
2021/12/13 12:18:26;;;;;;;2.33;1.13;;;14.60;88.80;;;;;;5033052;28;20061;-70
2021/12/13 12:21:30;;;;;;;2.55;1.10;;;14.70;89.10;;;;;;5033228;28;20422;-71
2021/12/13 12:23:59;;;;;;;2.65;1.10;;;14.60;89.60;;;;;;5033807;28;20026;-71
2021/12/13 12:26:26;;;;;;;4.07;1.27;;;14.70;87.30;;;;;;5032983;28;20040;-70
2021/12/13 12:28:58;;;;;;;;;;;14.70;88.80;;;;;;5033603;28;20053;-71
2021/12/13 12:31:32;;;;;;;4.47;1.10;;;14.80;87.60;;;;;;5033053;28;19940;-70
2021/12/13 12:34:00;;;;;;;2.92;1.10;;;14.80;89.30;;;;;;5033368;28;20555;-71
2021/12/13 12:36:47;;;;;;;2.35;1.20;;;14.70;89.50;;;;;;5033063;28;20038;-69
2021/12/13 12:39:31;;;;;;;3.45;1.10;;;14.70;89.80;;;;;;5016390;28;20506;-69
2021/12/13 12:42:06;;;;;;;2.63;1.55;;;14.60;90.30;;;;;;5016743;28;20464;-70
2021/12/13 12:44:55;;;;;;;2.72;1.20;;;14.80;89.50;;;;;;5032968;28;20025;-71
2021/12/13 12:47:29;;;;;;;4.97;1.33;;;14.80;90.10;;;;;;5033457;28;20033;-70
2021/12/13 12:50:19;;;;;;;4.22;1.17;;;14.80;90.40;;;;;;5033177;28;20152;-70
2021/12/13 12:52:48;;;;;;;3.80;1.30;;;14.90;90.10;;;;;;5033227;28;20041;-72
2021/12/13 12:55:20;;;;;;;3.78;1.42;;;15.00;90.10;;;;;;5032246;28;20034;-69
2021/12/13 12:57:47;;;;;;;3.58;1.30;;;14.90;90.30;;;;;;5074047;28;20123;-69
2021/12/13 13:00:14;;;;;;;2.88;1.20;;;14.80;90.60;;;;;;5055860;28;20094;-68
2021/12/13 13:02:40;;;;;;;3.78;1.00;;;14.70;90.90;;;;;;5073944;28;20041;-69
2021/12/13 13:05:09;;;;;;;3.17;1.27;;;14.80;90.70;;;;;;5056349;28;20119;-70
2021/12/13 13:07:38;;;;;;;3.67;1.35;;;14.70;90.90;;;;;;5075281;28;20032;-70
2021/12/13 13:10:20;;;;;;;4.53;1.30;;;14.70;91.20;;;;;;5056687;28;20060;-68
2021/12/13 13:12:48;;;;;;;5.20;1.50;;;15.00;90.80;;;;;;5075386;28;20031;-69
2021/12/13 13:15:25;;;;;;;2.15;1.02;;;15.10;90.40;;;;;;5074853;28;20032;-69
2021/12/13 13:17:58;;;;;;;3.15;1.38;;;15.10;89.50;;;;;;5074747;28;20046;-69
2021/12/13 13:20:32;;;;;;;4.32;1.30;;;15.20;90.60;;;;;;5073657;28;20032;-69
2021/12/13 13:23:01;;;;;;;4.40;1.40;;;15.20;90.30;;;;;;5074708;28;20111;-69
2021/12/13 13:25:38;;;;;;;4.53;1.45;;;15.10;90.00;;;;;;5074675;28;20031;-69
2021/12/13 13:28:16;;;;;;;4.25;1.25;;;15.20;90.70;;;;;;5074515;28;20588;-69
2021/12/13 13:30:54;;;;;;;6.07;1.23;;;15.30;90.60;;;;;;5074953;28;20100;-68
2021/12/13 13:33:41;;;;;;;5.75;1.40;;;15.00;91.30;;;;;;5074759;28;20029;-70
2021/12/13 13:36:10;;;;;;;6.30;1.50;;;15.00;92.30;;;;;;5074669;28;20469;-69
2021/12/13 13:38:37;;;;;;;3.53;1.20;;;14.90;92.60;;;;;;5074800;28;20350;-69
2021/12/13 13:41:12;;;;;;;3.83;1.20;;;14.70;92.20;;;;;;5074270;28;20029;-69
2021/12/13 13:43:39;;;;;;;3.70;1.30;;;14.70;92.30;;;;;;5074162;28;20070;-71
2021/12/13 13:46:07;;;;;;;3.03;1.20;;;14.80;92.20;;;;;;5074107;28;20036;-69
2021/12/13 13:48:37;;;;;;;7.47;1.48;;;14.70;92.50;;;;;;5074279;28;20362;-69
2021/12/13 13:51:09;;;;;;;3.10;1.30;;;14.80;92.20;;;;;;5074176;28;20481;-69